Time;durP1;ratioP1;P1;durP2;ratioP2;P2;SDS_P1;SDS_P2;PMS_P1;PMS_P2;Temp;Humidity;BMP_temperature;BMP_pressure;BME280_temperature;BME280_humidity;BME280_pressure;Samples;Min_cycle;Max_cycle;Signal;HPM_P1;HPM_P2
2024/01/03 00:04:16;;;;;;;;;;;;;;;;;;12834546;22;19916;-80
2024/01/03 00:09:16;;;;;;;;;;;;;;;;;;12859361;22;19964;-79
2024/01/03 00:14:17;;;;;;;;;;;;;;;;;;12968397;22;20000;-80
2024/01/03 00:19:17;;;;;;;;;;;;;;;;;;12856862;22;19985;-80
2024/01/03 00:24:17;;;;;;;;;;;;;;;;;;12856922;22;19916;-80
2024/01/03 00:29:17;;;;;;;;;;;;;;;;;;12824332;22;20246;-81
2024/01/03 00:34:18;;;;;;;;;;;;;;;;;;12835286;22;19916;-80
2024/01/03 00:39:18;;;;;;;;;;;;;;;;;;12938156;22;20379;-80
2024/01/03 00:44:18;;;;;;;;;;;;;;;;;;12810129;22;19920;-80
2024/01/03 00:49:18;;;;;;;;;;;;;;;;;;12898938;22;20273;-78
2024/01/03 00:54:19;;;;;;;;;;;;;;;;;;12817867;22;19938;-78
2024/01/03 00:59:19;;;;;;;;;;;;;;;;;;12922491;22;19923;-78
2024/01/03 01:04:19;;;;;;;;;;;;;;;;;;12818331;22;20006;-78
2024/01/03 01:09:19;;;;;;;;;;;;;;;;;;12818399;22;19931;-80
2024/01/03 01:14:20;;;;;;;;;;;;;;;;;;12820084;22;19916;-79
2024/01/03 01:19:20;;;;;;;;;;;;;;;;;;12818451;22;19922;-78
2024/01/03 01:24:20;;;;;;;;;;;;;;;;;;12818397;22;19923;-78
2024/01/03 01:29:21;;;;;;;;;;;;;;;;;;12815776;22;20342;-77
2024/01/03 01:34:21;;;;;;;;;;;;;;;;;;12819121;22;19916;-78
2024/01/03 01:39:22;;;;;;;;;;;;;;;;;;12817979;22;20659;-79
2024/01/03 01:44:22;;;;;;;;;;;;;;;;;;12816548;22;20301;-77
2024/01/03 01:49:22;;;;;;;;;;;;;;;;;;12921266;22;19920;-78
2024/01/03 01:54:23;;;;;;;;;;;;;;;;;;12818910;22;19922;-78
2024/01/03 01:59:23;;;;;;;;;;;;;;;;;;12917856;22;19916;-77
2024/01/03 02:04:24;;;;;;;;;;;;;;;;;;12916291;22;19959;-77
2024/01/03 02:09:25;;;;;;;;;;;;;;;;;;12896005;22;19924;-78
2024/01/03 02:14:26;;;;;;;;;;;;;;;;;;12818600;22;20318;-78
2024/01/03 02:19:26;;;;;;;;;;;;;;;;;;12920962;22;19973;-76
2024/01/03 02:24:27;;;;;;;;;;;;;;;;;;12819383;22;19928;-78
2024/01/03 02:29:27;;;;;;;;;;;;;;;;;;12817232;22;20294;-78
2024/01/03 02:34:28;;;;;;;;;;;;;;;;;;12922333;22;20014;-77
2024/01/03 02:39:28;;;;;;;;;;;;;;;;;;12818520;22;20010;-78
2024/01/03 02:44:28;;;;;;;;;;;;;;;;;;12819613;22;19920;-78
2024/01/03 02:49:28;;;;;;;;;;;;;;;;;;12818898;22;19995;-77
2024/01/03 02:54:29;;;;;;;;;;;;;;;;;;12818112;22;19922;-76
2024/01/03 02:59:29;;;;;;;;;;;;;;;;;;12818016;22;19943;-77
2024/01/03 03:04:29;;;;;;;;;;;;;;;;;;12816827;22;19989;-76
2024/01/03 03:09:29;;;;;;;;;;;;;;;;;;12817641;22;19951;-78
2024/01/03 03:14:29;;;;;;;;;;;;;;;;;;12818239;22;19923;-77
2024/01/03 03:19:30;;;;;;;;;;;;;;;;;;12818293;22;20513;-78
2024/01/03 03:24:30;;;;;;;;;;;;;;;;;;12930685;22;20035;-78
2024/01/03 03:29:30;;;;;;;;;;;;;;;;;;12838123;22;19946;-76
2024/01/03 03:34:30;;;;;;;;;;;;;;;;;;12833594;22;20235;-76
2024/01/03 03:39:31;;;;;;;;;;;;;;;;;;12826866;22;20302;-75
2024/01/03 03:44:32;;;;;;;;;;;;;;;;;;12823555;22;19925;-75
2024/01/03 03:49:32;;;;;;;;;;;;;;;;;;12817439;22;19924;-76
2024/01/03 03:54:32;;;;;;;;;;;;;;;;;;12813468;22;19916;-75
2024/01/03 03:59:32;;;;;;;;;;;;;;;;;;12816598;22;20624;-77
2024/01/03 04:04:33;;;;;;;;;;;;;;;;;;12916463;22;19926;-77
2024/01/03 04:09:33;;;;;;;;;;;;;;;;;;12817099;22;20362;-79
2024/01/03 04:14:34;;;;;;;;;;;;;;;;;;12919216;22;19939;-79
2024/01/03 04:19:34;;;;;;;;;;;;;;;;;;12923399;22;19971;-77
2024/01/03 04:24:34;;;;;;;;;;;;;;;;;;12819412;22;19916;-78
2024/01/03 04:29:34;;;;;;;;;;;;;;;;;;12818916;22;19923;-79
2024/01/03 04:34:36;;;;;;;;;;;;;;;;;;12922788;22;20246;-78
2024/01/03 04:39:36;;;;;;;;;;;;;;;;;;12821127;22;19912;-78
2024/01/03 04:44:37;;;;;;;;;;;;;;;;;;12821208;22;20334;-78
2024/01/03 04:49:37;;;;;;;;;;;;;;;;;;12819245;22;19923;-79
2024/01/03 04:54:38;;;;;;;;;;;;;;;;;;12927947;22;19916;-79
2024/01/03 04:59:38;;;;;;;;;;;;;;;;;;12819786;22;19922;-79
2024/01/03 05:04:38;;;;;;;;;;;;;;;;;;12820829;22;20023;-79
2024/01/03 05:09:38;;;;;;;;;;;;;;;;;;12824738;22;19947;-79
2024/01/03 05:14:39;;;;;;;;;;;;;;;;;;12824288;22;20259;-79
2024/01/03 05:19:39;;;;;;;;;;;;;;;;;;12819647;22;19915;-79
2024/01/03 05:24:39;;;;;;;;;;;;;;;;;;12923585;22;19916;-77
2024/01/03 05:29:39;;;;;;;;;;;;;;;;;;12818360;22;19916;-79
2024/01/03 05:34:40;;;;;;;;;;;;;;;;;;12822764;22;20642;-79
2024/01/03 05:39:40;;;;;;;;;;;;;;;;;;12823553;22;20722;-79
2024/01/03 05:44:40;;;;;;;;;;;;;;;;;;12820156;22;20590;-79
2024/01/03 05:49:41;;;;;;;;;;;;;;;;;;12819195;22;19978;-79
2024/01/03 05:54:41;;;;;;;;;;;;;;;;;;12820391;22;19916;-80
2024/01/03 05:59:41;;;;;;;;;;;;;;;;;;12923109;22;20740;-80
2024/01/03 06:04:41;;;;;;;;;;;;;;;;;;12926113;22;19916;-81
2024/01/03 06:09:42;;;;;;;;;;;;;;;;;;12819997;22;19923;-80
2024/01/03 06:14:42;;;;;;;;;;;;;;;;;;12820077;22;19940;-82
2024/01/03 06:19:44;;;;;;;;;;;;;;;;;;12820494;22;20007;-80
2024/01/03 06:24:46;;;;;;;;;;;;;;;;;;12821597;22;19920;-81
2024/01/03 06:29:46;;;;;;;;;;;;;;;;;;12826306;22;20370;-81
2024/01/03 06:34:47;;;;;;;;;;;;;;;;;;12928195;22;19943;-81
2024/01/03 06:39:47;;;;;;;;;;;;;;;;;;12822434;22;19916;-83
2024/01/03 06:44:47;;;;;;;;;;;;;;;;;;12927152;22;19916;-81
2024/01/03 06:49:48;;;;;;;;;;;;;;;;;;12820465;22;19922;-78
2024/01/03 06:54:49;;;;;;;;;;;;;;;;;;12819491;22;19912;-79
2024/01/03 06:59:50;;;;;;;;;;;;;;;;;;12820535;22;19923;-80
2024/01/03 07:04:50;;;;;;;;;;;;;;;;;;12819269;22;20616;-78
2024/01/03 07:09:52;;;;;;;;;;;;;;;;;;12820029;22;19916;-80
2024/01/03 07:14:52;;;;;;;;;;;;;;;;;;12822684;22;19912;-80
2024/01/03 07:19:52;;;;;;;;;;;;;;;;;;12821488;22;19997;-81
2024/01/03 07:24:52;;;;;;;;;;;;;;;;;;12820330;22;19969;-79
2024/01/03 07:29:53;;;;;;;;;;;;;;;;;;12821084;22;20023;-78
2024/01/03 07:34:53;;;;;;;;;;;;;;;;;;12820885;22;19920;-80
2024/01/03 07:39:54;;;;;;;;;;;;;;;;;;12922658;22;20018;-78
2024/01/03 07:44:54;;;;;;;;;;;;;;;;;;12920871;22;19956;-78
2024/01/03 07:49:54;;;;;;;;;;;;;;;;;;12819209;22;19981;-77
2024/01/03 07:54:54;;;;;;;;;;;;;;;;;;12817854;22;19922;-76
2024/01/03 07:59:55;;;;;;;;;;;;;;;;;;12820159;22;19916;-77
2024/01/03 08:04:55;;;;;;;;;;;;;;;;;;12820621;22;19916;-77
2024/01/03 08:09:55;;;;;;;;;;;;;;;;;;12926521;22;19916;-79
2024/01/03 08:14:55;;;;;;;;;;;;;;;;;;12824022;22;20004;-76
2024/01/03 08:19:56;;;;;;;;;;;;;;;;;;12832375;22;19993;-76
2024/01/03 08:24:56;;;;;;;;;;;;;;;;;;12917500;22;19929;-77
2024/01/03 08:29:56;;;;;;;;;;;;;;;;;;12941952;22;19916;-76
2024/01/03 08:34:56;;;;;;;;;;;;;;;;;;12918877;22;19900;-78
2024/01/03 08:39:57;;;;;;;;;;;;;;;;;;12975278;22;20337;-79
2024/01/03 08:44:57;;;;;;;;;;;;;;;;;;12927199;22;19927;-76
2024/01/03 08:49:57;;;;;;;;;;;;;;;;;;12821805;22;19916;-78
2024/01/03 08:54:59;;;;;;;;;;;;;;;;;;12822397;22;19916;-78
2024/01/03 08:59:59;;;;;;;;;;;;;;;;;;12925060;22;20353;-78
2024/01/03 09:05:00;;;;;;;;;;;;;;;;;;12823361;22;19930;-78
2024/01/03 09:10:00;;;;;;;;;;;;;;;;;;12826965;22;19943;-78
2024/01/03 09:15:00;;;;;;;;;;;;;;;;;;12821429;22;19912;-77
2024/01/03 09:20:01;;;;;;;;;;;;;;;;;;12925590;22;19916;-77
2024/01/03 09:25:02;;;;;;;;;;;;;;;;;;12818982;22;20381;-76
2024/01/03 09:30:02;;;;;;;;;;;;;;;;;;12821274;22;19916;-78
2024/01/03 09:35:03;;;;;;;;;;;;;;;;;;12822107;22;20539;-77
2024/01/03 09:40:03;;;;;;;;;;;;;;;;;;12815907;22;19926;-77
2024/01/03 09:45:03;;;;;;;;;;;;;;;;;;12921723;22;20412;-78
2024/01/03 09:50:04;;;;;;;;;;;;;;;;;;12822666;22;19939;-77
2024/01/03 09:55:04;;;;;;;;;;;;;;;;;;12826752;22;19920;-77
2024/01/03 10:00:04;;;;;;;;;;;;;;;;;;12927159;22;20255;-77
2024/01/03 10:05:07;;;;;;;;;;;;;;;;;;12820827;22;20235;-77
2024/01/03 10:10:07;;;;;;;;;;;;;;;;;;12820593;22;19965;-77
2024/01/03 10:15:08;;;;;;;;;;;;;;;;;;12818401;22;19915;-76
2024/01/03 10:20:08;;;;;;;;;;;;;;;;;;12818331;22;19916;-76
2024/01/03 10:25:08;;;;;;;;;;;;;;;;;;12817404;22;19949;-78
2024/01/03 10:30:08;;;;;;;;;;;;;;;;;;12921489;22;20403;-76
2024/01/03 10:35:09;;;;;;;;;;;;;;;;;;12815454;22;19923;-77
2024/01/03 10:40:09;;;;;;;;;;;;;;;;;;12921603;22;19923;-76
2024/01/03 10:45:10;;;;;;;;;;;;;;;;;;12816961;22;19959;-75
2024/01/03 10:50:11;;;;;;;;;;;;;;;;;;12816977;22;19944;-79
2024/01/03 10:55:11;;;;;;;;;;;;;;;;;;12817274;22;20230;-77
2024/01/03 11:00:12;;;;;;;;;;;;;;;;;;12817834;22;19947;-76
2024/01/03 11:05:12;;;;;;;;;;;;;;;;;;12817965;22;19924;-75
2024/01/03 11:10:12;;;;;;;;;;;;;;;;;;12920425;22;20337;-77
2024/01/03 11:15:13;;;;;;;;;;;;;;;;;;12895131;22;19923;-76
2024/01/03 11:20:13;;;;;;;;;;;;;;;;;;12906382;22;19916;-78
2024/01/03 11:25:14;;;;;;;;;;;;;;;;;;12818400;22;19928;-76
2024/01/03 11:30:14;;;;;;;;;;;;;;;;;;12924056;22;19924;-74
2024/01/03 11:35:16;;;;;;;;;;;;;;;;;;12923931;22;20238;-76
2024/01/03 11:40:16;;;;;;;;;;;;;;;;;;12923494;22;19912;-76
2024/01/03 11:45:17;;;;;;;;;;;;;;;;;;12818903;22;19924;-75
2024/01/03 11:50:17;;;;;;;;;;;;;;;;;;12817920;22;20013;-74
2024/01/03 11:55:18;;;;;;;;;;;;;;;;;;12909028;22;19970;-76
2024/01/03 12:00:24;;;;;;;;;;;;;;;;;;12820243;22;19923;-75
2024/01/03 12:05:24;;;;;;;;;;;;;;;;;;12921041;22;19939;-76
2024/01/03 12:10:24;;;;;;;;;;;;;;;;;;12819770;22;19916;-75
2024/01/03 12:15:26;;;;;;;;;;;;;;;;;;12922780;22;19958;-75
2024/01/03 12:20:26;;;;;;;;;;;;;;;;;;12819223;22;19917;-75
2024/01/03 12:25:26;;;;;;;;;;;;;;;;;;12923541;22;20268;-74
2024/01/03 12:30:26;;;;;;;;;;;;;;;;;;12820612;22;19968;-76
2024/01/03 12:35:27;;;;;;;;;;;;;;;;;;12923427;22;20780;-74
2024/01/03 12:40:27;;;;;;;;;;;;;;;;;;12921457;22;19912;-75
2024/01/03 12:45:27;;;;;;;;;;;;;;;;;;12924419;22;19995;-77
2024/01/03 12:50:28;;;;;;;;;;;;;;;;;;12925819;22;19916;-77
2024/01/03 12:55:28;;;;;;;;;;;;;;;;;;12923107;22;19931;-74
2024/01/03 13:00:28;;;;;;;;;;;;;;;;;;12819358;22;20258;-77
2024/01/03 13:05:28;;;;;;;;;;;;;;;;;;12820483;22;20346;-77
2024/01/03 13:10:30;;;;;;;;;;;;;;;;;;12925951;22;19937;-75
2024/01/03 13:15:31;;;;;;;;;;;;;;;;;;12920888;22;20061;-76
2024/01/03 13:20:33;;;;;;;;;;;;;;;;;;12825153;22;20351;-75
2024/01/03 13:25:33;;;;;;;;;;;;;;;;;;12904687;22;19959;-74
2024/01/03 13:30:33;;;;;;;;;;;;;;;;;;12927157;22;19916;-75
2024/01/03 13:35:33;;;;;;;;;;;;;;;;;;12820316;22;19923;-76
2024/01/03 13:40:35;;;;;;;;;;;;;;;;;;12819630;22;19916;-76
2024/01/03 13:45:35;;;;;;;;;;;;;;;;;;12977423;22;19973;-77
2024/01/03 13:50:36;;;;;;;;;;;;;;;;;;12893076;22;19927;-75
2024/01/03 13:55:36;;;;;;;;;;;;;;;;;;12925137;22;19923;-76
2024/01/03 14:00:36;;;;;;;;;;;;;;;;;;12980875;22;19915;-75
2024/01/03 14:05:36;;;;;;;;;;;;;;;;;;12949589;22;19929;-76
2024/01/03 14:10:37;;;;;;;;;;;;;;;;;;12845859;22;19960;-76
2024/01/03 14:15:38;;;;;;;;;;;;;;;;;;12819482;22;20012;-75
2024/01/03 14:20:39;;;;;;;;;;;;;;;;;;12921801;22;19973;-75
2024/01/03 14:25:42;;;;;;;;;;;;;;;;;;12819895;22;19935;-77
2024/01/03 14:30:42;;;;;;;;;;;;;;;;;;12974232;22;19942;-76
2024/01/03 14:35:43;;;;;;;;;;;;;;;;;;12815223;22;19920;-76
2024/01/03 14:40:48;;;;;;;;;;;;;;;;;;12818356;22;19916;-79
2024/01/03 14:45:48;;;;;;;;;;;;;;;;;;12851935;22;19932;-75
2024/01/03 14:50:49;;;;;;;;;;;;;;;;;;12923324;22;20003;-76
2024/01/03 14:55:49;;;;;;;;;;;;;;;;;;12917713;22;20767;-73
2024/01/03 15:00:50;;;;;;;;;;;;;;;;;;12921898;22;20645;-77
2024/01/03 15:05:50;;;;;;;;;;;;;;;;;;12817034;22;19923;-75
2024/01/03 15:10:50;;;;;;;;;;;;;;;;;;12815461;22;19916;-74
2024/01/03 15:15:51;;;;;;;;;;;;;;;;;;12920004;22;19916;-74
2024/01/03 15:20:51;;;;;;;;;;;;;;;;;;12816000;22;19969;-76
2024/01/03 15:25:52;;;;;;;;;;;;;;;;;;12816545;22;19930;-75
2024/01/03 15:30:52;;;;;;;;;;;;;;;;;;12948915;22;19911;-77
2024/01/03 15:35:53;;;;;;;;;;;;;;;;;;12883358;22;19972;-76
2024/01/03 15:40:54;;;;;;;;;;;;;;;;;;12839813;22;19919;-76
2024/01/03 15:45:54;;;;;;;;;;;;;;;;;;12881510;22;19924;-75
2024/01/03 15:50:54;;;;;;;;;;;;;;;;;;12889872;22;19937;-77
2024/01/03 15:55:54;;;;;;;;;;;;;;;;;;13004851;22;19947;-76
2024/01/03 16:00:55;;;;;;;;;;;;;;;;;;12923581;22;20342;-76
2024/01/03 16:05:56;;;;;;;;;;;;;;;;;;12815727;22;19923;-77
2024/01/03 16:10:56;;;;;;;;;;;;;;;;;;13001682;22;19910;-74
2024/01/03 16:15:56;;;;;;;;;;;;;;;;;;12920119;22;20037;-76
2024/01/03 16:20:56;;;;;;;;;;;;;;;;;;12819985;22;19916;-75
2024/01/03 16:26:00;;;;;;;;;;;;;;;;;;12818689;22;19942;-74
2024/01/03 16:31:00;;;;;;;;;;;;;;;;;;12821209;22;20691;-76
2024/01/03 16:36:00;;;;;;;;;;;;;;;;;;12819572;22;19916;-76
2024/01/03 16:41:01;;;;;;;;;;;;;;;;;;12924769;22;19993;-76
2024/01/03 16:46:01;;;;;;;;;;;;;;;;;;12816945;22;19926;-77
2024/01/03 16:51:01;;;;;;;;;;;;;;;;;;12818533;22;19912;-75
2024/01/03 16:56:02;;;;;;;;;;;;;;;;;;12821556;22;19916;-78
2024/01/03 17:01:02;;;;;;;;;;;;;;;;;;12827112;22;19970;-76
2024/01/03 17:06:02;;;;;;;;;;;;;;;;;;12922342;22;19928;-76
2024/01/03 17:11:04;;;;;;;;;;;;;;;;;;12818817;22;19946;-76
2024/01/03 17:16:04;;;;;;;;;;;;;;;;;;12924054;22;19943;-76
2024/01/03 17:21:05;;;;;;;;;;;;;;;;;;12818308;22;19995;-76
2024/01/03 17:26:06;;;;;;;;;;;;;;;;;;12817122;22;19925;-76
2024/01/03 17:31:06;;;;;;;;;;;;;;;;;;12816944;22;19916;-74
2024/01/03 17:36:07;;;;;;;;;;;;;;;;;;12817543;22;20298;-74
2024/01/03 17:41:07;;;;;;;;;;;;;;;;;;12919736;22;19922;-73
2024/01/03 17:46:07;;;;;;;;;;;;;;;;;;12815646;22;19923;-77
2024/01/03 17:51:09;;;;;;;;;;;;;;;;;;12919329;22;19915;-75
2024/01/03 17:56:10;;;;;;;;;;;;;;;;;;12921580;22;20131;-75
2024/01/03 18:01:11;;;;;;;;;;;;;;;;;;12819124;22;19938;-74
2024/01/03 18:06:11;;;;;;;;;;;;;;;;;;12897650;22;20502;-73
2024/01/03 18:11:12;;;;;;;;;;;;;;;;;;12819719;22;19991;-74
2024/01/03 18:16:12;;;;;;;;;;;;;;;;;;12820318;22;19939;-74
2024/01/03 18:21:13;;;;;;;;;;;;;;;;;;12826919;22;19951;-73
2024/01/03 18:26:13;;;;;;;;;;;;;;;;;;12959937;22;19969;-73
2024/01/03 18:31:13;;;;;;;;;;;;;;;;;;12818960;22;19933;-73
2024/01/03 18:36:14;;;;;;;;;;;;;;;;;;12817736;22;19920;-74
2024/01/03 18:41:16;;;;;;;;;;;;;;;;;;12920920;22;19950;-75
2024/01/03 18:46:16;;;;;;;;;;;;;;;;;;12816845;22;20012;-73
2024/01/03 18:51:16;;;;;;;;;;;;;;;;;;12817208;22;20011;-74
2024/01/03 18:56:16;;;;;;;;;;;;;;;;;;12817714;22;19916;-73
2024/01/03 19:01:17;;;;;;;;;;;;;;;;;;12817525;22;19916;-73
2024/01/03 19:06:17;;;;;;;;;;;;;;;;;;12920083;22;19920;-73
2024/01/03 19:11:17;;;;;;;;;;;;;;;;;;12919429;22;20253;-73
2024/01/03 19:16:18;;;;;;;;;;;;;;;;;;12818351;22;20016;-73
2024/01/03 19:21:18;;;;;;;;;;;;;;;;;;12920041;22;19996;-75
2024/01/03 19:26:19;;;;;;;;;;;;;;;;;;12817226;22;20019;-74
2024/01/03 19:31:20;;;;;;;;;;;;;;;;;;12918908;22;20313;-77
2024/01/03 19:36:20;;;;;;;;;;;;;;;;;;12815257;22;19916;-75
2024/01/03 19:41:21;;;;;;;;;;;;;;;;;;12815599;22;19977;-76
2024/01/03 19:46:21;;;;;;;;;;;;;;;;;;12818928;22;20195;-77
2024/01/03 19:51:22;;;;;;;;;;;;;;;;;;12925046;22;19976;-77
2024/01/03 19:56:22;;;;;;;;;;;;;;;;;;12818559;22;20292;-77
2024/01/03 20:01:23;;;;;;;;;;;;;;;;;;12981475;22;19956;-77
2024/01/03 20:06:23;;;;;;;;;;;;;;;;;;12911750;22;19926;-78
2024/01/03 20:11:23;;;;;;;;;;;;;;;;;;12921440;22;19923;-76
2024/01/03 20:16:24;;;;;;;;;;;;;;;;;;12817678;22;19943;-79
2024/01/03 20:21:24;;;;;;;;;;;;;;;;;;12923652;22;20049;-80
2024/01/03 20:26:29;;;;;;;;;;;;;;;;;;12926385;22;20002;-81
2024/01/03 20:31:29;;;;;;;;;;;;;;;;;;12880289;22;19918;-83
2024/01/03 20:36:30;;;;;;;;;;;;;;;;;;12912556;22;20346;-81
2024/01/03 20:41:30;;;;;;;;;;;;;;;;;;12924091;22;19969;-76
2024/01/03 20:46:30;;;;;;;;;;;;;;;;;;12819203;22;19999;-78
2024/01/03 20:51:31;;;;;;;;;;;;;;;;;;12816856;22;19950;-82
2024/01/03 20:56:32;;;;;;;;;;;;;;;;;;12893178;22;20325;-78
2024/01/03 21:01:37;;;;;;;;;;;;;;;;;;12818578;22;20221;-79
2024/01/03 21:06:38;;;;;;;;;;;;;;;;;;12901820;22;19939;-79
2024/01/03 21:11:38;;;;;;;;;;;;;;;;;;12897513;22;19938;-79
2024/01/03 21:16:38;;;;;;;;;;;;;;;;;;12994101;22;20336;-79
2024/01/03 21:21:39;;;;;;;;;;;;;;;;;;12831478;22;20396;-79
2024/01/03 21:26:40;;;;;;;;;;;;;;;;;;12923254;22;19930;-80
2024/01/03 21:31:40;;;;;;;;;;;;;;;;;;12930282;22;20459;-80
2024/01/03 21:36:41;;;;;;;;;;;;;;;;;;12896909;22;20613;-81
2024/01/03 21:41:41;;;;;;;;;;;;;;;;;;12924924;22;19923;-79
2024/01/03 21:46:42;;;;;;;;;;;;;;;;;;12823903;22;20046;-81
2024/01/03 21:51:42;;;;;;;;;;;;;;;;;;12925711;22;19916;-79
2024/01/03 21:56:43;;;;;;;;;;;;;;;;;;12818312;22;19920;-80
2024/01/03 22:01:44;;;;;;;;;;;;;;;;;;12821684;22;19999;-79
2024/01/03 22:06:44;;;;;;;;;;;;;;;;;;12834826;22;20830;-80
2024/01/03 22:11:45;;;;;;;;;;;;;;;;;;13013382;22;19914;-78
2024/01/03 22:16:45;;;;;;;;;;;;;;;;;;12928098;22;19911;-81
2024/01/03 22:21:45;;;;;;;;;;;;;;;;;;12843382;22;19919;-82
2024/01/03 22:26:45;;;;;;;;;;;;;;;;;;12822036;22;19931;-81
2024/01/03 22:31:47;;;;;;;;;;;;;;;;;;12924528;22;20376;-81
2024/01/03 22:36:48;;;;;;;;;;;;;;;;;;12830984;22;19916;-79
2024/01/03 22:41:49;;;;;;;;;;;;;;;;;;12926545;22;20007;-83
2024/01/03 22:46:51;;;;;;;;;;;;;;;;;;12825843;22;20287;-80
2024/01/03 22:51:53;;;;;;;;;;;;;;;;;;13002399;22;19918;-81
2024/01/03 22:56:53;;;;;;;;;;;;;;;;;;12972336;22;19916;-79
2024/01/03 23:01:54;;;;;;;;;;;;;;;;;;12880134;22;19911;-80
2024/01/03 23:06:56;;;;;;;;;;;;;;;;;;13037020;22;19907;-80
2024/01/03 23:11:56;;;;;;;;;;;;;;;;;;12983599;22;19900;-79
2024/01/03 23:16:57;;;;;;;;;;;;;;;;;;12855069;22;19923;-79
2024/01/03 23:21:57;;;;;;;;;;;;;;;;;;12938677;22;19916;-80
2024/01/03 23:26:57;;;;;;;;;;;;;;;;;;12828143;22;19923;-81
2024/01/03 23:31:57;;;;;;;;;;;;;;;;;;12825013;22;19915;-79
2024/01/03 23:36:57;;;;;;;;;;;;;;;;;;12930009;22;19916;-80
2024/01/03 23:41:58;;;;;;;;;;;;;;;;;;12968674;22;20548;-78
2024/01/03 23:46:58;;;;;;;;;;;;;;;;;;12933329;22;20333;-79
2024/01/03 23:51:59;;;;;;;;;;;;;;;;;;12832143;22;19944;-80
2024/01/03 23:57:00;;;;;;;;;;;;;;;;;;12937621;22;19916;-80
